sensor_id;sensor_type;location;lat;lon;timestamp;P1;durP1;ratioP1;P2;durP2;ratioP2
77148;SDS011;66122;47.130;16.844;2023-03-01T00:03:06;25.33;;;10.73;;
77148;SDS011;66122;47.130;16.844;2023-03-01T00:13:09;23.37;;;10.50;;
77148;SDS011;66122;47.130;16.844;2023-03-01T00:23:12;24.05;;;10.63;;
77148;SDS011;66122;47.130;16.844;2023-03-01T00:33:14;25.10;;;9.77;;
77148;SDS011;66122;47.130;16.844;2023-03-01T00:43:17;22.13;;;10.30;;
77148;SDS011;66122;47.130;16.844;2023-03-01T00:53:20;24.77;;;10.90;;
77148;SDS011;66122;47.130;16.844;2023-03-01T01:03:23;21.23;;;9.97;;
77148;SDS011;66122;47.130;16.844;2023-03-01T01:13:27;21.40;;;9.27;;
77148;SDS011;66122;47.130;16.844;2023-03-01T01:23:33;19.70;;;9.00;;
77148;SDS011;66122;47.130;16.844;2023-03-01T01:33:36;17.83;;;7.90;;
77148;SDS011;66122;47.130;16.844;2023-03-01T01:43:40;19.20;;;9.07;;
77148;SDS011;66122;47.130;16.844;2023-03-01T01:53:46;21.87;;;8.83;;
77148;SDS011;66122;47.130;16.844;2023-03-01T02:03:53;18.70;;;7.85;;
77148;SDS011;66122;47.130;16.844;2023-03-01T02:13:55;23.03;;;9.10;;
77148;SDS011;66122;47.130;16.844;2023-03-01T02:23:59;14.90;;;7.23;;
77148;SDS011;66122;47.130;16.844;2023-03-01T02:34:25;16.05;;;7.88;;
77148;SDS011;66122;47.130;16.844;2023-03-01T02:44:29;19.65;;;8.23;;
77148;SDS011;66122;47.130;16.844;2023-03-01T02:54:33;22.63;;;9.73;;
77148;SDS011;66122;47.130;16.844;2023-03-01T03:04:42;19.80;;;8.17;;
77148;SDS011;66122;47.130;16.844;2023-03-01T03:14:45;26.02;;;9.38;;
77148;SDS011;66122;47.130;16.844;2023-03-01T03:24:47;24.93;;;9.90;;
77148;SDS011;66122;47.130;16.844;2023-03-01T03:34:50;19.83;;;8.37;;
77148;SDS011;66122;47.130;16.844;2023-03-01T03:44:52;17.95;;;8.50;;
77148;SDS011;66122;47.130;16.844;2023-03-01T03:54:55;16.73;;;7.83;;
77148;SDS011;66122;47.130;16.844;2023-03-01T04:04:57;21.23;;;10.10;;
77148;SDS011;66122;47.130;16.844;2023-03-01T04:15:03;22.48;;;10.02;;
77148;SDS011;66122;47.130;16.844;2023-03-01T04:25:16;19.57;;;9.17;;
77148;SDS011;66122;47.130;16.844;2023-03-01T04:35:20;20.27;;;9.60;;
77148;SDS011;66122;47.130;16.844;2023-03-01T04:45:23;19.90;;;9.10;;
77148;SDS011;66122;47.130;16.844;2023-03-01T04:55:26;25.10;;;9.90;;
77148;SDS011;66122;47.130;16.844;2023-03-01T05:05:33;19.83;;;8.73;;
77148;SDS011;66122;47.130;16.844;2023-03-01T05:15:38;21.07;;;9.30;;
77148;SDS011;66122;47.130;16.844;2023-03-01T05:25:42;19.60;;;8.02;;
77148;SDS011;66122;47.130;16.844;2023-03-01T05:35:44;25.73;;;9.47;;
77148;SDS011;66122;47.130;16.844;2023-03-01T05:45:48;23.50;;;9.53;;
77148;SDS011;66122;47.130;16.844;2023-03-01T05:55:51;24.65;;;10.55;;
77148;SDS011;66122;47.130;16.844;2023-03-01T06:05:57;24.80;;;10.53;;
77148;SDS011;66122;47.130;16.844;2023-03-01T06:16:00;19.77;;;9.30;;
77148;SDS011;66122;47.130;16.844;2023-03-01T06:26:06;20.57;;;9.00;;
77148;SDS011;66122;47.130;16.844;2023-03-01T06:36:10;19.52;;;9.00;;
77148;SDS011;66122;47.130;16.844;2023-03-01T06:46:12;23.13;;;11.03;;
77148;SDS011;66122;47.130;16.844;2023-03-01T06:56:16;36.63;;;16.90;;
77148;SDS011;66122;47.130;16.844;2023-03-01T07:06:21;23.13;;;12.95;;
77148;SDS011;66122;47.130;16.844;2023-03-01T07:16:24;26.93;;;13.00;;
77148;SDS011;66122;47.130;16.844;2023-03-01T07:26:28;27.83;;;11.30;;
77148;SDS011;66122;47.130;16.844;2023-03-01T07:36:31;29.27;;;13.32;;
77148;SDS011;66122;47.130;16.844;2023-03-01T07:46:35;32.40;;;14.03;;
77148;SDS011;66122;47.130;16.844;2023-03-01T07:56:38;30.33;;;14.20;;
77148;SDS011;66122;47.130;16.844;2023-03-01T08:06:42;31.80;;;14.20;;
77148;SDS011;66122;47.130;16.844;2023-03-01T08:16:48;29.35;;;12.63;;
77148;SDS011;66122;47.130;16.844;2023-03-01T08:26:51;24.73;;;12.67;;
77148;SDS011;66122;47.130;16.844;2023-03-01T08:36:55;30.27;;;14.53;;
77148;SDS011;66122;47.130;16.844;2023-03-01T08:47:00;31.17;;;14.95;;
77148;SDS011;66122;47.130;16.844;2023-03-01T08:57:04;27.73;;;13.67;;
77148;SDS011;66122;47.130;16.844;2023-03-01T09:07:07;32.50;;;14.37;;
77148;SDS011;66122;47.130;16.844;2023-03-01T09:17:10;36.95;;;15.55;;
77148;SDS011;66122;47.130;16.844;2023-03-01T09:27:13;30.93;;;14.70;;
77148;SDS011;66122;47.130;16.844;2023-03-01T09:37:17;34.67;;;13.97;;
77148;SDS011;66122;47.130;16.844;2023-03-01T09:47:20;30.80;;;16.23;;
77148;SDS011;66122;47.130;16.844;2023-03-01T10:07:54;27.53;;;13.33;;
77148;SDS011;66122;47.130;16.844;2023-03-01T10:18:06;34.37;;;15.93;;
77148;SDS011;66122;47.130;16.844;2023-03-01T10:28:18;35.72;;;15.98;;
77148;SDS011;66122;47.130;16.844;2023-03-01T10:38:48;28.53;;;13.17;;
77148;SDS011;66122;47.130;16.844;2023-03-01T10:59:31;30.27;;;14.25;;
77148;SDS011;66122;47.130;16.844;2023-03-01T11:09:38;34.07;;;17.23;;
77148;SDS011;66122;47.130;16.844;2023-03-01T11:19:40;29.93;;;14.80;;
77148;SDS011;66122;47.130;16.844;2023-03-01T11:40:23;31.33;;;14.02;;
77148;SDS011;66122;47.130;16.844;2023-03-01T12:00:52;29.27;;;13.67;;
77148;SDS011;66122;47.130;16.844;2023-03-01T12:11:19;26.17;;;12.60;;
77148;SDS011;66122;47.130;16.844;2023-03-01T12:21:30;26.10;;;12.17;;
77148;SDS011;66122;47.130;16.844;2023-03-01T12:42:08;24.92;;;11.30;;
77148;SDS011;66122;47.130;16.844;2023-03-01T13:02:32;22.10;;;10.83;;
77148;SDS011;66122;47.130;16.844;2023-03-01T13:23:03;23.63;;;11.63;;
77148;SDS011;66122;47.130;16.844;2023-03-01T13:33:33;18.47;;;10.07;;
77148;SDS011;66122;47.130;16.844;2023-03-01T13:43:49;29.57;;;10.97;;
77148;SDS011;66122;47.130;16.844;2023-03-01T13:53:53;22.80;;;10.90;;
77148;SDS011;66122;47.130;16.844;2023-03-01T14:03:57;24.57;;;9.10;;
77148;SDS011;66122;47.130;16.844;2023-03-01T14:24:26;29.10;;;12.68;;
77148;SDS011;66122;47.130;16.844;2023-03-01T14:34:29;23.13;;;10.30;;
77148;SDS011;66122;47.130;16.844;2023-03-01T14:44:32;28.60;;;13.53;;
77148;SDS011;66122;47.130;16.844;2023-03-01T15:05:00;21.80;;;9.00;;
77148;SDS011;66122;47.130;16.844;2023-03-01T15:15:52;24.80;;;10.13;;
77148;SDS011;66122;47.130;16.844;2023-03-01T15:25:43;23.13;;;10.27;;
77148;SDS011;66122;47.130;16.844;2023-03-01T15:35:53;24.13;;;10.10;;
77148;SDS011;66122;47.130;16.844;2023-03-01T15:45:58;22.87;;;9.90;;
77148;SDS011;66122;47.130;16.844;2023-03-01T15:56:01;22.17;;;10.47;;
77148;SDS011;66122;47.130;16.844;2023-03-01T16:06:03;22.30;;;10.75;;
77148;SDS011;66122;47.130;16.844;2023-03-01T16:16:08;22.00;;;11.33;;
77148;SDS011;66122;47.130;16.844;2023-03-01T16:26:15;21.27;;;10.20;;
77148;SDS011;66122;47.130;16.844;2023-03-01T16:36:18;25.10;;;11.80;;
77148;SDS011;66122;47.130;16.844;2023-03-01T16:46:23;25.98;;;11.10;;
77148;SDS011;66122;47.130;16.844;2023-03-01T16:56:30;23.33;;;10.50;;
77148;SDS011;66122;47.130;16.844;2023-03-01T17:06:35;17.87;;;8.93;;
77148;SDS011;66122;47.130;16.844;2023-03-01T17:16:38;18.33;;;9.52;;
77148;SDS011;66122;47.130;16.844;2023-03-01T17:26:41;20.20;;;9.73;;
77148;SDS011;66122;47.130;16.844;2023-03-01T17:36:44;22.00;;;9.87;;
77148;SDS011;66122;47.130;16.844;2023-03-01T17:46:48;20.20;;;10.27;;
77148;SDS011;66122;47.130;16.844;2023-03-01T17:56:51;20.40;;;10.40;;
77148;SDS011;66122;47.130;16.844;2023-03-01T18:06:54;32.93;;;15.00;;
77148;SDS011;66122;47.130;16.844;2023-03-01T18:16:58;23.87;;;12.00;;
77148;SDS011;66122;47.130;16.844;2023-03-01T18:27:04;35.78;;;16.23;;
77148;SDS011;66122;47.130;16.844;2023-03-01T18:37:07;35.50;;;15.17;;
77148;SDS011;66122;47.130;16.844;2023-03-01T18:47:11;22.07;;;10.37;;
77148;SDS011;66122;47.130;16.844;2023-03-01T18:57:16;23.35;;;11.75;;
77148;SDS011;66122;47.130;16.844;2023-03-01T19:07:20;22.53;;;11.00;;
77148;SDS011;66122;47.130;16.844;2023-03-01T19:17:23;21.80;;;11.70;;
77148;SDS011;66122;47.130;16.844;2023-03-01T19:27:31;27.73;;;12.93;;
77148;SDS011;66122;47.130;16.844;2023-03-01T19:37:35;27.73;;;13.07;;
77148;SDS011;66122;47.130;16.844;2023-03-01T19:47:39;26.67;;;11.47;;
77148;SDS011;66122;47.130;16.844;2023-03-01T19:57:42;33.40;;;14.33;;
77148;SDS011;66122;47.130;16.844;2023-03-01T20:07:45;32.13;;;13.52;;
77148;SDS011;66122;47.130;16.844;2023-03-01T20:17:49;28.30;;;12.63;;
77148;SDS011;66122;47.130;16.844;2023-03-01T20:27:53;47.90;;;18.50;;
77148;SDS011;66122;47.130;16.844;2023-03-01T20:37:57;40.13;;;16.27;;
77148;SDS011;66122;47.130;16.844;2023-03-01T20:48:00;27.83;;;12.33;;
77148;SDS011;66122;47.130;16.844;2023-03-01T20:58:03;81.77;;;30.07;;
77148;SDS011;66122;47.130;16.844;2023-03-01T21:08:05;205.23;;;64.35;;
77148;SDS011;66122;47.130;16.844;2023-03-01T21:18:09;119.53;;;43.23;;
77148;SDS011;66122;47.130;16.844;2023-03-01T21:28:12;35.67;;;17.13;;
77148;SDS011;66122;47.130;16.844;2023-03-01T21:38:14;49.63;;;20.53;;
77148;SDS011;66122;47.130;16.844;2023-03-01T21:48:17;150.90;;;36.63;;
77148;SDS011;66122;47.130;16.844;2023-03-01T21:58:20;61.97;;;21.20;;
77148;SDS011;66122;47.130;16.844;2023-03-01T22:08:23;82.60;;;26.93;;
77148;SDS011;66122;47.130;16.844;2023-03-01T22:18:26;53.05;;;19.48;;
77148;SDS011;66122;47.130;16.844;2023-03-01T22:28:29;53.30;;;20.27;;
77148;SDS011;66122;47.130;16.844;2023-03-01T22:38:33;57.10;;;20.07;;
77148;SDS011;66122;47.130;16.844;2023-03-01T22:48:36;63.00;;;20.85;;
77148;SDS011;66122;47.130;16.844;2023-03-01T22:58:39;74.67;;;22.67;;
77148;SDS011;66122;47.130;16.844;2023-03-01T23:08:41;61.10;;;19.90;;
77148;SDS011;66122;47.130;16.844;2023-03-01T23:18:44;33.00;;;14.23;;
77148;SDS011;66122;47.130;16.844;2023-03-01T23:28:47;38.22;;;15.25;;
77148;SDS011;66122;47.130;16.844;2023-03-01T23:38:52;32.40;;;14.03;;
77148;SDS011;66122;47.130;16.844;2023-03-01T23:48:58;32.83;;;14.63;;
77148;SDS011;66122;47.130;16.844;2023-03-01T23:59:05;34.80;;;15.00;;
